Time;durP1;ratioP1;P1;durP2;ratioP2;P2;SDS_P1;SDS_P2;PMS_P1;PMS_P2;Temp;Humidity;BMP_temperature;BMP_pressure;BME280_temperature;BME280_humidity;BME280_pressure;Samples;Min_cycle;Max_cycle;Signal;HPM_P1;HPM_P2
2023/08/01 00:01:21;;;;;;;544.97;386.17;;;;;;;;;;5065293;28;20518;-69
2023/08/01 00:03:48;;;;;;;529.53;389.70;;;;;;;;;;5058435;28;20938;-68
2023/08/01 00:06:15;;;;;;;449.65;401.05;;;;;;;;;;5059584;28;20447;-67
2023/08/01 00:08:42;;;;;;;524.80;386.33;;;;;;;;;;5060098;28;20485;-67
2023/08/01 00:11:11;;;;;;;430.63;393.35;;;;;;;;;;5061678;28;20442;-67
2023/08/01 00:13:38;;;;;;;376.13;346.67;;;;;;;;;;5060039;28;21179;-67
2023/08/01 00:16:05;;;;;;;320.52;297.08;;;;;;;;;;5058932;28;21377;-67
2023/08/01 00:18:34;;;;;;;240.88;222.75;;;;;;;;;;5060308;28;20425;-67
2023/08/01 00:21:02;;;;;;;459.73;398.60;;;;;;;;;;5058530;28;20436;-67
2023/08/01 00:23:29;;;;;;;187.43;174.50;;;;;;;;;;5061463;28;20529;-67
2023/08/01 00:25:56;;;;;;;104.38;97.88;;;;;;;;;;5060644;28;20427;-67
2023/08/01 00:28:23;;;;;;;459.13;412.75;;;;;;;;;;5061460;28;20817;-67
2023/08/01 00:30:51;;;;;;;518.30;378.60;;;;;;;;;;5054388;28;20440;-67
2023/08/01 00:33:18;;;;;;;482.73;399.95;;;;;;;;;;5055983;28;21016;-70
2023/08/01 00:35:53;;;;;;;559.57;354.37;;;;;;;;;;5053339;28;20506;-70
2023/08/01 00:38:21;;;;;;;428.92;396.83;;;;;;;;;;5067011;28;20423;-69
2023/08/01 00:40:48;;;;;;;524.78;387.67;;;;;;;;;;5063553;28;20500;-69
2023/08/01 00:43:15;;;;;;;551.70;367.63;;;;;;;;;;5062208;28;20455;-68
2023/08/01 00:45:42;;;;;;;567.87;351.23;;;;;;;;;;5053561;28;20950;-68
2023/08/01 00:48:09;;;;;;;550.95;351.38;;;;;;;;;;5054716;28;20435;-68
2023/08/01 00:50:37;;;;;;;555.50;327.50;;;;;;;;;;5066313;28;20927;-68
2023/08/01 00:53:05;;;;;;;557.75;329.25;;;;;;;;;;5053230;28;20470;-69
2023/08/01 00:55:33;;;;;;;547.63;317.20;;;;;;;;;;5067931;28;20428;-70
2023/08/01 00:58:00;;;;;;;543.33;310.73;;;;;;;;;;5064764;28;20516;-70
2023/08/01 01:00:27;;;;;;;540.88;306.50;;;;;;;;;;5056982;28;20448;-73
2023/08/01 01:02:55;;;;;;;546.33;313.92;;;;;;;;;;5060418;28;20763;-71
2023/08/01 01:05:32;;;;;;;538.67;301.95;;;;;;;;;;5064047;28;20438;-70
2023/08/01 01:07:59;;;;;;;225.10;208.60;;;;;;;;;;5054317;28;20938;-70
2023/08/01 01:10:26;;;;;;;141.75;132.00;;;;;;;;;;5051928;28;20493;-70
2023/08/01 01:12:55;;;;;;;452.63;392.00;;;;;;;;;;5056638;28;20464;-70
2023/08/01 01:15:22;;;;;;;536.85;342.10;;;;;;;;;;5057660;28;20429;-69
2023/08/01 01:17:49;;;;;;;398.13;363.80;;;;;;;;;;5061772;28;20428;-71
2023/08/01 01:20:20;;;;;;;395.15;363.13;;;;;;;;;;5055670;28;21107;-72
2023/08/01 01:22:50;;;;;;;471.52;374.08;;;;;;;;;;5053195;28;20517;-71
2023/08/01 01:25:17;;;;;;;525.22;343.33;;;;;;;;;;5060181;28;20494;-70
2023/08/01 01:27:45;;;;;;;530.60;334.23;;;;;;;;;;5063686;28;20431;-70
2023/08/01 01:30:13;;;;;;;537.03;337.85;;;;;;;;;;5058368;28;20922;-69
2023/08/01 01:32:40;;;;;;;453.27;367.43;;;;;;;;;;5061533;28;20846;-69
2023/08/01 01:35:07;;;;;;;519.80;354.08;;;;;;;;;;5056669;28;20435;-69
2023/08/01 01:37:34;;;;;;;509.63;347.33;;;;;;;;;;5059431;28;20457;-69
2023/08/01 01:40:01;;;;;;;539.30;339.65;;;;;;;;;;5056063;28;20427;-70
2023/08/01 01:42:29;;;;;;;466.75;344.85;;;;;;;;;;5062355;28;20427;-69
2023/08/01 01:44:56;;;;;;;444.05;360.05;;;;;;;;;;5054536;28;20518;-70
2023/08/01 01:47:23;;;;;;;414.73;369.60;;;;;;;;;;5057422;28;20489;-70
2023/08/01 01:49:50;;;;;;;479.15;348.67;;;;;;;;;;5062096;28;20435;-69
2023/08/01 01:52:18;;;;;;;534.78;333.35;;;;;;;;;;5060135;28;20428;-70
2023/08/01 01:54:45;;;;;;;542.00;339.75;;;;;;;;;;5054943;28;20802;-70
2023/08/01 01:57:12;;;;;;;533.20;335.00;;;;;;;;;;5057224;28;20911;-70
2023/08/01 01:59:39;;;;;;;530.90;333.13;;;;;;;;;;5062763;28;21094;-69
2023/08/01 02:02:06;;;;;;;532.45;327.50;;;;;;;;;;5059804;28;20470;-69
2023/08/01 02:04:34;;;;;;;542.93;331.23;;;;;;;;;;5054447;28;20494;-69
2023/08/01 02:07:02;;;;;;;544.78;339.60;;;;;;;;;;5058377;28;20461;-69
2023/08/01 02:09:30;;;;;;;549.33;329.27;;;;;;;;;;5062347;28;20435;-69
2023/08/01 02:11:57;;;;;;;551.67;340.33;;;;;;;;;;5059980;28;20939;-70
2023/08/01 02:14:27;;;;;;;436.65;383.73;;;;;;;;;;5056266;28;20431;-68
2023/08/01 02:16:54;;;;;;;550.60;358.08;;;;;;;;;;5055897;28;20955;-70
2023/08/01 02:19:21;;;;;;;556.80;348.13;;;;;;;;;;5058699;28;20817;-69
2023/08/01 02:21:48;;;;;;;564.08;364.50;;;;;;;;;;5056492;28;20462;-70
2023/08/01 02:24:16;;;;;;;560.15;365.73;;;;;;;;;;5074735;28;20427;-70
2023/08/01 02:26:43;;;;;;;562.10;353.58;;;;;;;;;;5056068;28;20429;-68
2023/08/01 02:29:10;;;;;;;562.78;355.48;;;;;;;;;;5059618;28;20453;-69
2023/08/01 02:31:37;;;;;;;557.92;340.52;;;;;;;;;;5061798;28;20431;-69
2023/08/01 02:34:04;;;;;;;558.83;336.77;;;;;;;;;;5059514;28;20432;-70
2023/08/01 02:36:31;;;;;;;549.63;318.77;;;;;;;;;;5059373;28;21166;-70
2023/08/01 02:38:59;;;;;;;553.28;329.73;;;;;;;;;;5063738;28;20786;-70
2023/08/01 02:41:26;;;;;;;549.85;320.17;;;;;;;;;;5054991;28;20441;-69
2023/08/01 02:43:53;;;;;;;545.53;313.67;;;;;;;;;;5059421;28;20453;-68
2023/08/01 02:46:20;;;;;;;555.33;327.65;;;;;;;;;;5055158;28;20478;-69
2023/08/01 02:48:49;;;;;;;560.40;337.40;;;;;;;;;;5058932;28;20428;-68
2023/08/01 02:51:16;;;;;;;558.70;342.27;;;;;;;;;;5058542;28;20751;-69
2023/08/01 02:53:43;;;;;;;564.58;358.50;;;;;;;;;;5062382;28;20435;-69
2023/08/01 02:56:13;;;;;;;557.85;342.17;;;;;;;;;;5060439;28;20435;-69
2023/08/01 02:58:42;;;;;;;553.47;334.25;;;;;;;;;;5058599;28;20491;-68
2023/08/01 03:01:10;;;;;;;551.85;326.67;;;;;;;;;;5057122;28;20987;-69
2023/08/01 03:03:37;;;;;;;552.42;328.83;;;;;;;;;;5055563;28;20438;-68
2023/08/01 03:06:05;;;;;;;551.93;328.80;;;;;;;;;;5053462;28;21275;-69
2023/08/01 03:08:32;;;;;;;555.63;333.95;;;;;;;;;;5056736;28;20501;-69
2023/08/01 03:10:59;;;;;;;539.00;295.60;;;;;;;;;;5059445;28;20431;-69
2023/08/01 03:13:26;;;;;;;548.00;313.33;;;;;;;;;;5056347;28;20441;-69
2023/08/01 03:15:56;;;;;;;547.40;310.80;;;;;;;;;;5057828;28;20429;-68
2023/08/01 03:18:23;;;;;;;539.13;295.97;;;;;;;;;;5060153;28;20431;-68
2023/08/01 03:20:51;;;;;;;542.38;308.05;;;;;;;;;;5053421;28;20419;-68
2023/08/01 03:23:18;;;;;;;538.92;295.83;;;;;;;;;;5058141;28;20439;-68
2023/08/01 03:25:45;;;;;;;546.17;319.15;;;;;;;;;;5059110;28;20482;-68
2023/08/01 03:28:13;;;;;;;544.50;311.38;;;;;;;;;;5058770;28;20437;-67
2023/08/01 03:30:41;;;;;;;539.03;304.85;;;;;;;;;;5063670;28;20546;-68
2023/08/01 03:33:11;;;;;;;526.35;287.67;;;;;;;;;;5061576;28;20806;-69
2023/08/01 03:35:38;;;;;;;547.22;318.40;;;;;;;;;;5063362;28;20427;-69
2023/08/01 03:38:05;;;;;;;398.17;324.03;;;;;;;;;;5060047;28;20441;-69
2023/08/01 03:40:32;;;;;;;505.25;368.98;;;;;;;;;;5068048;28;20423;-70
2023/08/01 03:43:03;;;;;;;506.17;375.58;;;;;;;;;;5066970;28;20485;-70
2023/08/01 03:45:30;;;;;;;543.25;319.30;;;;;;;;;;5060126;28;20468;-71
2023/08/01 03:47:57;;;;;;;573.38;364.40;;;;;;;;;;5053759;28;20433;-70
2023/08/01 03:50:25;;;;;;;558.88;333.10;;;;;;;;;;5060929;28;20431;-69
2023/08/01 03:52:54;;;;;;;534.50;296.08;;;;;;;;;;5058108;28;20442;-68
2023/08/01 03:55:21;;;;;;;538.97;308.52;;;;;;;;;;5056783;28;20924;-68
2023/08/01 03:57:52;;;;;;;525.95;280.73;;;;;;;;;;5063448;28;21006;-68
2023/08/01 04:00:19;;;;;;;527.78;282.90;;;;;;;;;;5064478;28;20438;-69
2023/08/01 04:02:46;;;;;;;521.05;266.63;;;;;;;;;;5059319;28;20427;-69
2023/08/01 04:05:17;;;;;;;547.55;312.50;;;;;;;;;;5056753;28;20984;-68
2023/08/01 04:07:45;;;;;;;501.65;364.88;;;;;;;;;;5065336;28;20431;-68
2023/08/01 04:10:14;;;;;;;410.88;367.10;;;;;;;;;;5057201;28;20431;-67
2023/08/01 04:12:42;;;;;;;542.03;415.70;;;;;;;;;;5062486;28;20459;-67
2023/08/01 04:15:09;;;;;;;544.05;310.63;;;;;;;;;;5060348;28;20435;-68
2023/08/01 04:17:37;;;;;;;31.13;29.20;;;;;;;;;;5061978;28;20481;-68
2023/08/01 04:20:04;;;;;;;1.45;1.35;;;;;;;;;;5057687;28;20445;-67
2023/08/01 04:22:34;;;;;;;3.30;3.00;;;;;;;;;;5062280;28;20913;-68
2023/08/01 04:25:02;;;;;;;1.40;1.30;;;;;;;;;;5058147;28;20444;-68
2023/08/01 04:27:29;;;;;;;1.73;1.60;;;;;;;;;;5058021;28;20454;-68
2023/08/01 04:29:56;;;;;;;189.48;170.40;;;;;;;;;;5059754;28;20435;-68
2023/08/01 04:32:23;;;;;;;572.17;365.07;;;;;;;;;;5062157;28;20440;-70
2023/08/01 04:34:51;;;;;;;348.38;317.00;;;;;;;;;;5051000;28;20443;-69
2023/08/01 04:37:20;;;;;;;455.50;384.40;;;;;;;;;;5061562;28;20518;-69
2023/08/01 04:39:47;;;;;;;537.40;363.10;;;;;;;;;;5054309;28;21010;-69
2023/08/01 04:42:14;;;;;;;490.87;375.00;;;;;;;;;;5055000;28;20451;-69
2023/08/01 04:44:42;;;;;;;439.60;399.02;;;;;;;;;;5060951;28;20447;-69
2023/08/01 04:47:09;;;;;;;320.77;287.20;;;;;;;;;;5057608;28;20449;-70
2023/08/01 04:49:36;;;;;;;376.63;344.63;;;;;;;;;;5061384;28;20423;-68
2023/08/01 04:52:03;;;;;;;315.35;289.92;;;;;;;;;;5053429;28;20512;-68
2023/08/01 04:54:34;;;;;;;356.63;326.85;;;;;;;;;;5061884;28;20933;-69
2023/08/01 04:57:01;;;;;;;562.83;333.30;;;;;;;;;;5062033;28;20471;-70
2023/08/01 04:59:28;;;;;;;571.30;341.55;;;;;;;;;;5057095;28;20439;-70
2023/08/01 05:01:55;;;;;;;545.85;297.92;;;;;;;;;;5059733;28;20427;-68
2023/08/01 05:04:23;;;;;;;550.23;304.50;;;;;;;;;;5057055;28;20954;-68
2023/08/01 05:06:50;;;;;;;545.53;300.55;;;;;;;;;;5056404;28;20433;-69
2023/08/01 05:09:17;;;;;;;546.90;323.70;;;;;;;;;;5058251;28;20580;-68
2023/08/01 05:11:44;;;;;;;497.23;361.48;;;;;;;;;;5054166;28;20451;-71
2023/08/01 05:14:12;;;;;;;547.72;332.30;;;;;;;;;;5057063;28;21123;-70
2023/08/01 05:16:39;;;;;;;544.95;308.42;;;;;;;;;;5076784;28;20431;-69
2023/08/01 05:19:07;;;;;;;538.80;296.88;;;;;;;;;;5046221;28;20454;-68
2023/08/01 05:21:34;;;;;;;528.40;284.60;;;;;;;;;;5052826;28;20624;-70
2023/08/01 05:24:02;;;;;;;536.97;296.58;;;;;;;;;;5052248;28;20430;-68
2023/08/01 05:26:30;;;;;;;549.95;318.80;;;;;;;;;;5059021;28;20427;-68
2023/08/01 05:28:58;;;;;;;559.35;328.30;;;;;;;;;;5052313;28;20525;-69
2023/08/01 05:31:25;;;;;;;556.67;324.35;;;;;;;;;;5055264;28;20443;-68
2023/08/01 05:33:52;;;;;;;555.90;332.90;;;;;;;;;;5058962;28;20948;-68
2023/08/01 05:36:20;;;;;;;449.58;401.05;;;;;;;;;;5057375;28;20442;-68
2023/08/01 05:38:47;;;;;;;558.90;332.90;;;;;;;;;;5059739;28;20459;-67
2023/08/01 05:41:18;;;;;;;526.25;401.63;;;;;;;;;;5055344;28;20439;-67
2023/08/01 05:43:47;;;;;;;567.15;368.83;;;;;;;;;;5057686;28;20528;-69
2023/08/01 05:46:20;;;;;;;444.67;402.02;;;;;;;;;;5058650;28;20421;-67
2023/08/01 05:48:48;;;;;;;412.10;377.77;;;;;;;;;;5058340;28;20439;-67
2023/08/01 05:51:15;;;;;;;597.28;396.20;;;;;;;;;;5060341;28;21288;-68
2023/08/01 05:53:43;;;;;;;445.08;408.02;;;;;;;;;;5056642;28;20439;-68
2023/08/01 05:56:10;;;;;;;509.15;450.02;;;;;;;;;;5056864;28;21158;-69
2023/08/01 05:58:37;;;;;;;527.92;450.95;;;;;;;;;;5059982;28;20482;-69
2023/08/01 06:01:06;;;;;;;93.23;87.20;;;;;;;;;;5061673;28;20433;-68
2023/08/01 06:03:33;;;;;;;467.27;421.30;;;;;;;;;;5057886;28;20462;-69
2023/08/01 06:06:00;;;;;;;420.15;384.75;;;;;;;;;;5055577;28;20475;-69
2023/08/01 06:08:30;;;;;;;546.35;416.42;;;;;;;;;;5056370;28;20424;-69
2023/08/01 06:11:01;;;;;;;545.00;426.80;;;;;;;;;;5061268;28;20435;-69
2023/08/01 06:13:28;;;;;;;526.83;391.20;;;;;;;;;;5062029;28;20438;-69
2023/08/01 06:15:55;;;;;;;579.50;365.05;;;;;;;;;;5063148;28;20429;-69
2023/08/01 06:18:22;;;;;;;447.33;408.60;;;;;;;;;;5045677;28;21490;-68
2023/08/01 06:20:50;;;;;;;328.17;304.25;;;;;;;;;;5059711;28;21022;-68
2023/08/01 06:23:17;;;;;;;516.63;449.20;;;;;;;;;;5053408;28;20500;-68
2023/08/01 06:25:44;;;;;;;512.87;459.50;;;;;;;;;;5060569;28;20443;-68
2023/08/01 06:28:11;;;;;;;611.85;407.45;;;;;;;;;;5057169;28;20828;-68
2023/08/01 06:30:38;;;;;;;605.05;394.13;;;;;;;;;;5051892;28;20906;-68
2023/08/01 06:33:06;;;;;;;602.08;393.92;;;;;;;;;;5075288;28;20439;-69
2023/08/01 06:35:33;;;;;;;610.08;405.35;;;;;;;;;;5058650;28;20435;-69
2023/08/01 06:38:00;;;;;;;608.78;401.85;;;;;;;;;;5057489;28;20769;-69
2023/08/01 06:40:27;;;;;;;609.50;403.98;;;;;;;;;;5052291;28;20432;-70
2023/08/01 06:42:55;;;;;;;608.60;392.83;;;;;;;;;;5054125;28;20459;-70
2023/08/01 06:45:22;;;;;;;605.60;391.27;;;;;;;;;;5068389;28;20849;-72
2023/08/01 06:47:49;;;;;;;596.10;371.30;;;;;;;;;;5054469;28;20528;-71
2023/08/01 06:50:17;;;;;;;598.00;377.92;;;;;;;;;;5056129;28;20433;-71
2023/08/01 06:52:44;;;;;;;610.53;392.73;;;;;;;;;;5050791;28;20428;-70
2023/08/01 06:55:11;;;;;;;601.57;386.33;;;;;;;;;;5059895;28;20523;-70
2023/08/01 06:57:38;;;;;;;580.75;446.58;;;;;;;;;;5055359;28;20489;-71
2023/08/01 07:00:06;;;;;;;623.20;432.58;;;;;;;;;;5062383;28;21148;-71
2023/08/01 07:02:33;;;;;;;605.17;392.23;;;;;;;;;;5067329;28;20552;-73
2023/08/01 07:05:00;;;;;;;602.97;390.17;;;;;;;;;;5062656;28;20431;-71
2023/08/01 07:07:27;;;;;;;624.17;420.77;;;;;;;;;;5066615;28;20454;-72
2023/08/01 07:09:55;;;;;;;612.20;389.27;;;;;;;;;;5058782;28;20434;-71
2023/08/01 07:12:22;;;;;;;603.67;370.60;;;;;;;;;;5061383;28;20435;-71
2023/08/01 07:14:49;;;;;;;653.40;446.83;;;;;;;;;;5057920;28;20427;-70
2023/08/01 07:17:16;;;;;;;658.85;452.73;;;;;;;;;;5069220;28;20963;-70
2023/08/01 07:19:43;;;;;;;656.33;436.07;;;;;;;;;;5054825;28;20519;-70
2023/08/01 07:22:11;;;;;;;696.33;500.40;;;;;;;;;;5063357;28;20423;-70
2023/08/01 07:24:38;;;;;;;719.30;534.07;;;;;;;;;;5066961;28;20611;-70
2023/08/01 07:27:05;;;;;;;721.58;527.30;;;;;;;;;;5064846;28;20465;-70
2023/08/01 07:29:33;;;;;;;723.05;526.58;;;;;;;;;;5052150;28;20487;-69
2023/08/01 07:32:00;;;;;;;716.60;510.00;;;;;;;;;;5063706;28;20439;-70
2023/08/01 07:34:30;;;;;;;718.00;501.33;;;;;;;;;;5059389;28;20431;-69
2023/08/01 07:36:57;;;;;;;745.97;542.23;;;;;;;;;;5059444;28;20518;-69
2023/08/01 07:39:24;;;;;;;749.45;549.95;;;;;;;;;;5062712;28;20435;-70
2023/08/01 07:41:53;;;;;;;746.63;550.50;;;;;;;;;;5060197;28;20429;-68
2023/08/01 07:44:22;;;;;;;708.83;479.75;;;;;;;;;;5056992;28;20451;-68
2023/08/01 07:46:49;;;;;;;720.50;506.45;;;;;;;;;;5061778;28;20424;-68
2023/08/01 07:49:17;;;;;;;797.10;623.42;;;;;;;;;;5064234;28;20755;-68
2023/08/01 07:51:46;;;;;;;792.38;612.33;;;;;;;;;;5060909;28;20439;-68
2023/08/01 07:54:13;;;;;;;783.28;597.42;;;;;;;;;;5056969;28;20482;-68
2023/08/01 07:56:43;;;;;;;797.35;637.83;;;;;;;;;;5065836;28;21011;-68
2023/08/01 07:59:10;;;;;;;864.40;704.17;;;;;;;;;;5061878;28;20519;-67
2023/08/01 08:01:39;;;;;;;915.95;748.58;;;;;;;;;;5061209;28;20473;-67
2023/08/01 08:04:07;;;;;;;950.83;770.30;;;;;;;;;;5062491;28;20437;-67
2023/08/01 08:06:34;;;;;;;971.23;790.77;;;;;;;;;;5060395;28;20542;-67
2023/08/01 08:09:01;;;;;;;1034.60;879.60;;;;;;;;;;5059182;28;20520;-67
2023/08/01 08:11:28;;;;;;;996.73;831.80;;;;;;;;;;5059447;28;20836;-67
2023/08/01 08:13:56;;;;;;;1043.43;897.08;;;;;;;;;;5060239;28;21122;-66
2023/08/01 08:16:23;;;;;;;1005.38;851.95;;;;;;;;;;5061213;28;20532;-66
2023/08/01 08:18:52;;;;;;;1008.88;857.38;;;;;;;;;;5058886;28;20441;-65
2023/08/01 08:21:19;;;;;;;1013.30;864.20;;;;;;;;;;5065157;28;20459;-65
2023/08/01 08:23:47;;;;;;;1023.95;881.75;;;;;;;;;;5056390;28;20459;-66
2023/08/01 08:26:14;;;;;;;1059.68;938.63;;;;;;;;;;5065087;28;20431;-65
2023/08/01 08:28:42;;;;;;;1056.25;934.40;;;;;;;;;;5056850;28;20445;-65
2023/08/01 08:31:09;;;;;;;1051.50;925.72;;;;;;;;;;5058321;28;20427;-64
2023/08/01 08:33:37;;;;;;;1080.78;961.45;;;;;;;;;;5057084;28;20546;-64
2023/08/01 08:36:04;;;;;;;1101.93;982.45;;;;;;;;;;5059777;28;20434;-64
2023/08/01 08:38:31;;;;;;;1078.47;959.33;;;;;;;;;;5053632;28;20436;-63
2023/08/01 08:41:13;;;;;;;1078.53;959.85;;;;;;;;;;5057756;28;20837;-63
2023/08/01 08:43:42;;;;;;;630.10;575.97;;;;;;;;;;5060330;28;20979;-63
2023/08/01 08:46:09;;;;;;;1103.18;983.90;;;;;;;;;;5052857;28;20425;-64
2023/08/01 08:48:40;;;;;;;1130.47;999.90;;;;;;;;;;5062420;28;20433;-63
2023/08/01 08:51:10;;;;;;;636.47;581.58;;;;;;;;;;5055566;28;20435;-63
2023/08/01 08:53:38;;;;;;;1036.35;927.88;;;;;;;;;;5057201;28;21085;-63
2023/08/01 08:56:05;;;;;;;672.90;614.15;;;;;;;;;;5056627;28;20435;-63
2023/08/01 08:58:33;;;;;;;1014.65;916.35;;;;;;;;;;5056511;28;20438;-63
2023/08/01 09:01:03;;;;;;;1058.25;965.63;;;;;;;;;;5052755;28;20909;-63
2023/08/01 09:03:31;;;;;;;907.47;827.22;;;;;;;;;;5058597;28;20854;-63
2023/08/01 09:06:04;;;;;;;1067.65;977.00;;;;;;;;;;5055360;28;20563;-64
2023/08/01 09:08:35;;;;;;;839.50;769.50;;;;;;;;;;5059195;28;21126;-63
2023/08/01 09:11:04;;;;;;;796.07;729.53;;;;;;;;;;5051462;28;20460;-63
2023/08/01 09:13:31;;;;;;;539.13;492.20;;;;;;;;;;5056735;28;20440;-63
2023/08/01 09:15:58;;;;;;;838.13;768.67;;;;;;;;;;5055821;28;21053;-64
2023/08/01 09:18:28;;;;;;;91.20;83.70;;;;;;;;;;5057410;28;20428;-62
2023/08/01 09:21:02;;;;;;;418.25;382.33;;;;;;;;;;5055992;28;21265;-63
2023/08/01 09:23:30;;;;;;;64.40;59.70;;;;;;;;;;5058117;28;20438;-63
2023/08/01 09:26:03;;;;;;;42.70;38.60;;;;;;;;;;5062024;28;20432;-63
2023/08/01 09:28:30;;;;;;;1.00;1.00;;;;;;;;;;5066295;28;20420;-62
2023/08/01 09:30:58;;;;;;;25.27;23.77;;;;;;;;;;5056394;28;20485;-60
2023/08/01 09:33:38;;;;;;;175.55;162.80;;;;;;;;;;5060664;28;20514;-60
2023/08/01 09:36:05;;;;;;;82.25;76.47;;;;;;;;;;5058112;28;20455;-61
2023/08/01 09:38:36;;;;;;;988.88;899.83;;;;;;;;;;5054071;28;20932;-60
2023/08/01 09:41:04;;;;;;;491.88;448.98;;;;;;;;;;5056033;28;20446;-60
2023/08/01 09:43:37;;;;;;;1045.73;929.20;;;;;;;;;;5051915;28;20432;-61
2023/08/01 09:46:07;;;;;;;1104.40;990.97;;;;;;;;;;5055810;28;20527;-61
2023/08/01 09:48:35;;;;;;;1114.03;993.88;;;;;;;;;;5055797;28;20419;-64
2023/08/01 09:51:08;;;;;;;1097.17;977.10;;;;;;;;;;5058110;28;20934;-63
2023/08/01 09:53:37;;;;;;;1138.63;999.90;;;;;;;;;;5071926;28;20745;-64
2023/08/01 09:56:04;;;;;;;1116.13;998.47;;;;;;;;;;5057090;28;20463;-64
2023/08/01 09:58:34;;;;;;;994.67;904.10;;;;;;;;;;5057561;28;20806;-63
2023/08/01 10:01:02;;;;;;;1132.15;999.90;;;;;;;;;;5068940;28;20931;-63
2023/08/01 10:03:29;;;;;;;1047.78;915.85;;;;;;;;;;5054442;28;20522;-64
2023/08/01 10:05:57;;;;;;;1053.85;919.50;;;;;;;;;;5057218;28;20562;-64
2023/08/01 10:08:25;;;;;;;1056.70;921.50;;;;;;;;;;5052685;28;20528;-64
2023/08/01 10:10:56;;;;;;;1068.50;942.40;;;;;;;;;;5058839;28;20423;-65
2023/08/01 10:13:24;;;;;;;1049.47;920.22;;;;;;;;;;5054938;28;20436;-65
2023/08/01 10:15:52;;;;;;;1046.00;918.85;;;;;;;;;;5055026;28;20493;-65
2023/08/01 10:18:19;;;;;;;1038.97;909.80;;;;;;;;;;5056788;28;21738;-65
2023/08/01 10:20:47;;;;;;;1084.10;973.42;;;;;;;;;;5058394;28;20905;-65
2023/08/01 10:23:14;;;;;;;1073.40;956.70;;;;;;;;;;5055110;28;20899;-66
2023/08/01 10:25:42;;;;;;;948.90;843.90;;;;;;;;;;5059258;28;20556;-65
2023/08/01 10:28:09;;;;;;;975.75;827.50;;;;;;;;;;5052744;28;20428;-66
2023/08/01 10:30:36;;;;;;;361.20;330.85;;;;;;;;;;5060180;28;20437;-65
2023/08/01 10:33:04;;;;;;;878.95;793.88;;;;;;;;;;5058008;28;20429;-65
2023/08/01 10:35:37;;;;;;;1046.67;897.80;;;;;;;;;;5052894;28;20520;-65
2023/08/01 10:38:05;;;;;;;1032.00;869.30;;;;;;;;;;5061366;28;20852;-65
2023/08/01 10:40:40;;;;;;;999.95;821.47;;;;;;;;;;5055260;28;20550;-65
2023/08/01 10:43:07;;;;;;;732.07;667.87;;;;;;;;;;5052865;28;20431;-66
2023/08/01 10:45:34;;;;;;;902.17;807.28;;;;;;;;;;5053230;28;20454;-65
2023/08/01 10:48:08;;;;;;;55.67;51.73;;;;;;;;;;5061635;28;20510;-65
2023/08/01 10:50:36;;;;;;;500.75;455.63;;;;;;;;;;5056950;28;20433;-66
2023/08/01 10:53:07;;;;;;;239.25;220.23;;;;;;;;;;5061132;28;20435;-65
2023/08/01 10:55:45;;;;;;;222.48;204.60;;;;;;;;;;5055936;28;20429;-66
2023/08/01 10:58:12;;;;;;;0.80;0.80;;;;;;;;;;5054191;28;20439;-66
2023/08/01 11:00:40;;;;;;;4.05;3.63;;;;;;;;;;5053032;28;20629;-66
2023/08/01 11:03:07;;;;;;;874.33;799.28;;;;;;;;;;5052023;28;20438;-66
2023/08/01 11:05:34;;;;;;;790.95;718.88;;;;;;;;;;5052946;28;20429;-67
2023/08/01 11:08:06;;;;;;;1037.53;939.35;;;;;;;;;;5058908;28;20430;-67
2023/08/01 11:10:33;;;;;;;1025.97;932.97;;;;;;;;;;5061572;28;20432;-66
2023/08/01 11:13:06;;;;;;;18.05;16.77;;;;;;;;;;5053081;28;20435;-66
2023/08/01 11:15:37;;;;;;;588.65;535.85;;;;;;;;;;5052281;28;20456;-66
2023/08/01 11:18:05;;;;;;;6.20;5.95;;;;;;;;;;5055091;28;20461;-67
2023/08/01 11:20:32;;;;;;;1.17;1.08;;;;;;;;;;5057454;28;20441;-66
2023/08/01 11:23:01;;;;;;;0.90;0.90;;;;;;;;;;5061352;28;20933;-67
2023/08/01 11:25:36;;;;;;;1.10;1.00;;;;;;;;;;5057648;28;20427;-67
2023/08/01 11:28:07;;;;;;;0.95;0.95;;;;;;;;;;5056184;28;20755;-67
2023/08/01 11:30:34;;;;;;;0.90;0.90;;;;;;;;;;5055014;28;20512;-68
2023/08/01 11:33:02;;;;;;;2.70;1.00;;;;;;;;;;5054719;28;20454;-67
2023/08/01 11:35:30;;;;;;;4.72;1.33;;;;;;;;;;5073576;28;20475;-67
2023/08/01 11:37:58;;;;;;;183.05;168.68;;;;;;;;;;5055465;28;20495;-67
2023/08/01 11:40:26;;;;;;;445.25;404.35;;;;;;;;;;5051915;28;20534;-67
2023/08/01 11:42:56;;;;;;;168.13;153.43;;;;;;;;;;5054718;28;20438;-67
2023/08/01 11:45:24;;;;;;;923.83;847.42;;;;;;;;;;5053650;28;20429;-67
2023/08/01 11:47:51;;;;;;;740.67;676.95;;;;;;;;;;5059240;28;21260;-68
2023/08/01 11:50:23;;;;;;;470.30;426.67;;;;;;;;;;5078759;28;20438;-68
2023/08/01 11:52:50;;;;;;;196.50;181.43;;;;;;;;;;5056176;28;20439;-69
2023/08/01 11:55:21;;;;;;;79.80;74.18;;;;;;;;;;5066801;28;20481;-69
2023/08/01 11:57:52;;;;;;;44.95;41.90;;;;;;;;;;5060397;28;20502;-68
2023/08/01 12:00:26;;;;;;;50.15;46.85;;;;;;;;;;5063848;28;20423;-69
2023/08/01 12:03:07;;;;;;;1.83;1.42;;;;;;;;;;5058146;28;20428;-68
2023/08/01 12:05:34;;;;;;;1.10;1.00;;;;;;;;;;5059271;28;20936;-70
2023/08/01 12:08:12;;;;;;;129.85;120.50;;;;;;;;;;5057700;28;20561;-70
2023/08/01 12:10:42;;;;;;;178.73;164.52;;;;;;;;;;5060421;28;20464;-70
2023/08/01 12:13:22;;;;;;;16.15;15.30;;;;;;;;;;5060969;28;20449;-69
2023/08/01 12:15:53;;;;;;;660.08;602.33;;;;;;;;;;5057748;28;20539;-70
2023/08/01 12:18:30;;;;;;;953.88;869.63;;;;;;;;;;5058798;28;20935;-69
2023/08/01 12:21:00;;;;;;;169.98;157.07;;;;;;;;;;5065851;28;21007;-70
2023/08/01 12:23:30;;;;;;;678.75;618.83;;;;;;;;;;5056412;28;20760;-70
2023/08/01 12:26:00;;;;;;;568.15;517.60;;;;;;;;;;5056377;28;20424;-69
2023/08/01 12:28:27;;;;;;;573.63;523.40;;;;;;;;;;5052249;28;20419;-70
2023/08/01 12:30:58;;;;;;;1096.50;986.42;;;;;;;;;;5055219;28;20443;-72
2023/08/01 12:33:25;;;;;;;157.57;143.68;;;;;;;;;;5056301;28;20443;-71
2023/08/01 12:36:00;;;;;;;104.40;94.78;;;;;;;;;;5054847;28;20435;-70
2023/08/01 12:38:28;;;;;;;194.18;178.55;;;;;;;;;;5058473;28;20427;-70
2023/08/01 12:40:55;;;;;;;11.02;10.13;;;;;;;;;;5060492;28;20427;-71
2023/08/01 12:43:22;;;;;;;175.48;161.05;;;;;;;;;;5063419;28;20494;-70
2023/08/01 12:45:50;;;;;;;108.22;99.38;;;;;;;;;;5062611;28;20429;-71
2023/08/01 12:48:20;;;;;;;77.78;72.15;;;;;;;;;;5063204;28;20425;-69
2023/08/01 12:50:48;;;;;;;3.70;3.50;;;;;;;;;;5061610;28;20492;-70
2023/08/01 12:53:15;;;;;;;80.93;75.05;;;;;;;;;;5062231;28;20526;-71
2023/08/01 12:55:47;;;;;;;1.40;1.30;;;;;;;;;;5059532;28;20924;-74
2023/08/01 12:58:14;;;;;;;100.45;92.50;;;;;;;;;;5064356;28;20514;-70
2023/08/01 13:00:42;;;;;;;1.00;1.00;;;;;;;;;;5058573;28;20461;-70
2023/08/01 13:03:09;;;;;;;1.90;1.00;;;;;;;;;;5066372;28;20430;-71
2023/08/01 13:05:37;;;;;;;7.95;7.45;;;;;;;;;;5060807;28;20430;-70
2023/08/01 13:08:04;;;;;;;82.80;76.80;;;;;;;;;;5057216;28;20451;-70
2023/08/01 13:10:32;;;;;;;447.17;408.30;;;;;;;;;;5057546;28;20969;-71
2023/08/01 13:13:00;;;;;;;545.42;497.05;;;;;;;;;;5057342;28;20517;-73
2023/08/01 13:15:28;;;;;;;532.20;484.58;;;;;;;;;;5064400;28;20432;-71
2023/08/01 13:17:55;;;;;;;41.08;37.63;;;;;;;;;;5059411;28;20538;-71
2023/08/01 13:20:22;;;;;;;1065.03;968.33;;;;;;;;;;5066912;28;20436;-71
2023/08/01 13:22:51;;;;;;;281.83;258.27;;;;;;;;;;5056116;28;20431;-73
2023/08/01 13:25:19;;;;;;;752.65;690.42;;;;;;;;;;5060610;28;20433;-71
2023/08/01 13:27:46;;;;;;;1097.63;979.15;;;;;;;;;;5058344;28;20424;-73
2023/08/01 13:30:14;;;;;;;1096.75;977.08;;;;;;;;;;5058195;28;20436;-73
2023/08/01 13:32:45;;;;;;;1173.03;999.90;;;;;;;;;;5062933;28;20448;-72
2023/08/01 13:35:12;;;;;;;655.80;600.50;;;;;;;;;;5060913;28;20467;-72
2023/08/01 13:37:40;;;;;;;20.95;19.00;;;;;;;;;;5056111;28;20605;-70
2023/08/01 13:40:07;;;;;;;2.10;1.77;;;;;;;;;;5060089;28;20436;-74
2023/08/01 13:42:37;;;;;;;588.42;533.85;;;;;;;;;;5054169;28;20481;-72
2023/08/01 13:45:05;;;;;;;2.97;2.67;;;;;;;;;;5059482;28;20427;-73
2023/08/01 13:47:32;;;;;;;11.90;10.80;;;;;;;;;;5067979;28;20450;-74
2023/08/01 13:49:59;;;;;;;48.70;44.42;;;;;;;;;;5063585;28;20432;-73
2023/08/01 13:52:26;;;;;;;2.13;2.03;;;;;;;;;;5063610;28;20469;-71
2023/08/01 13:54:53;;;;;;;1.75;1.45;;;;;;;;;;5056999;28;20491;-71
2023/08/01 13:57:23;;;;;;;3.63;1.48;;;;;;;;;;5067278;28;20427;-72
2023/08/01 13:59:53;;;;;;;1.52;1.20;;;;;;;;;;5055641;28;20521;-74
2023/08/01 14:02:36;;;;;;;13.60;12.20;;;;;;;;;;5053199;28;20440;-70